• Join FlightAware (Why Join?)
  • Login
  • US Flag 
08:21AM EDT


 

Airport Tracker/Info


-or-


 

Live Flight TrackerFlight Track Log ✈ SCX8700 ✈ 12-Jun-2014 ✈ KMIA - KPIE

Flight Track Log - Related Links

Times and Time Zones

All times are in EDT time to prevent confusion due to time zone crossing. See the SCX8700 flight status page for this flight to view local times or setup timezone preferences in your user account.

Time Position Orientation Groundspeed Altitude Reporting Facility
EDT Latitude Longitude Course Direction KTS MPH feet Rate Location/Type
04:37PM 25.8017 -80.2978 287° West 183 211 1,200  Level Miami Center
04:38PM 25.8153 -80.3472 287° West 213 245 4,100 3,300 Climbing Miami Center
04:38PM 25.8253 -80.3747 292° West 228 262 5,500 2,280 Climbing Miami Center
04:39PM 25.8506 -80.4528 290° West 272 313 7,600 2,640 Climbing Miami Center
04:40PM 25.9075 -80.5097 318° Northwest 274 315 11,000 3,360 Climbing Miami Center
04:41PM 25.9742 -80.5783 317° Northwest 329 379 14,600 3,540 Climbing Miami Center
04:42PM 26.0597 -80.6650 318° Northwest 347 399 18,400 3,480 Climbing Miami Center
04:44PM 26.1342 -80.7400 318° Northwest 360 414 21,800 480 Climbing Miami Center
04:50PM 26.5550 -81.2187 307° West 364 419 22,000  Climbing FlightAware ADS-B (KMCO)
04:51PM 26.6641 -81.3809 310° West 369 425 22,000  Level FlightAware ADS-B (KMCO)
04:53PM 26.8026 -81.4092 13° North 389 448 22,000  Level FlightAware ADS-B (KMCO)
04:53PM 26.8522 -81.3969 13° North 386 444 22,000  Level FlightAware ADS-B (KMCO)
04:54PM 26.9320 -81.3944 339° North 372 428 22,000  Level FlightAware ADS-B (KMCO)
04:54PM 26.9736 -81.4151 327° Northwest 366 421 22,000  Level FlightAware ADS-B (KMCO)
04:55PM 27.0097 -81.4602 306° West 369 425 22,000  Level FlightAware ADS-B (KMCO)
04:55PM 27.0500 -81.5227 306° West 373 429 22,000 -1,200 Level FlightAware ADS-B (KMCO)
04:57PM 27.1710 -81.6762 319° Northwest 373 429 19,200 -1,920 Descending FlightAware ADS-B (KMCO)
04:58PM 27.2217 -81.7328 304° West 368 423 17,400 -2,460 Descending FlightAware ADS-B (KMCO)
05:00PM 27.2431 -81.9361 267° West 333 383 12,800 -2,340 Descending FlightAware ADS-B (KMCO)
05:00PM 27.2484 -81.9730 292° West 329 379 12,100 -1,620 Descending FlightAware ADS-B (KMCO)
05:01PM 27.3038 -82.0233 328° Northwest 328 377 11,000 -420 Descending FlightAware ADS-B (KMCO)
05:03PM 27.4667 -82.1512 313° West 327 376 11,000  Level FlightAware ADS-B (KMCO)
05:04PM 27.4983 -82.1986 288° West 324 373 11,000 -120 Level FlightAware ADS-B (KMCO)
05:05PM 27.5167 -82.2833 288° West 284 327 10,900 -540 Descending Tampa TRACON
05:05PM 27.5294 -82.3161 294° West 289 333 10,200 -1,320 Descending Miami Center
05:06PM 27.5511 -82.3956 287° West 271 312 8,900 -1,500 Descending Miami Center
05:07PM 27.5764 -82.4889 287° West 263 303 7,100 -1,680 Descending Miami Center
05:08PM 27.5978 -82.5664 287° West 260 299 5,500 -1,500 Descending Miami Center
05:09PM 27.6197 -82.6431 288° West 259 298 4,000 -780 Descending Miami Center
05:10PM 27.6419 -82.7175 289° West 255 293 3,900 -60 Descending Miami Center
05:11PM 27.7069 -82.7547 333° Northwest 265 305 3,900  Level Miami Center
05:12PM 27.7764 -82.7856 339° North 266 306 3,900  Level Miami Center
05:14PM 27.8461 -82.8150 340° North 267 307 3,900 -600 Level Miami Center
05:15PM 27.9356 -82.8219 356° North 275 316 2,700 -720 Descending Miami Center
05:16PM 28.0111 -82.8231 359° North 273 314 2,500 -120 Descending Miami Center
05:17PM 28.0825 -82.8111 North 272 313 2,500 -300 Level Miami Center
05:18PM 28.0983 -82.7414 76° East 259 298 2,000 -540 Descending Miami Center
05:19PM 28.0758 -82.6906 117° Southeast 242 278 1,400 -300 Descending Miami Center
05:20PM 28.0225 -82.6711 162° South 217 250 1,400 -240 Level Miami Center
05:21PM 27.9667 -82.6833 191° South 183 211 1,000 -420 Descending Tampa TRACON